Terminal Aerodrome Forecast
Issued by NWS

Home | Current Version | Previous Version | Text Only | Print | Product List | Glossary On
Versions: 1 2 3 4 5 6 7 8 9 10 11 12 13 14 15 16
000
FTPA31 PHFO 291615 AAA
TAFHJR
TAF AMD
PHJR 291615Z 2916/3012 04008G18KT P6SM VCSH SCT025 BKN045
     FM292000 33008KT P6SM FEW030 BKN050
     FM300400 VRB05KT P6SM VCSH FEW030 BKN050=

USA.gov is the U.S. government's official web portal to all federal, state and local government web resources and services.